Time;durP1;ratioP1;P1;durP2;ratioP2;P2;SDS_P1;SDS_P2;PMS_P1;PMS_P2;Temp;Humidity;BMP_temperature;BMP_pressure;BME280_temperature;BME280_humidity;BME280_pressure;Samples;Min_cycle;Max_cycle;Signal;HPM_P1;HPM_P2
2022/02/14 00:00:52;;;;;;;54.67;15.23;;;-2.50;62.20;;;;;;5073460;28;20721;-76
2022/02/14 00:03:40;;;;;;;65.43;16.37;;;-2.50;62.60;;;;;;5073949;28;20247;-75
2022/02/14 00:06:27;;;;;;;79.67;20.03;;;-2.60;62.50;;;;;;5074349;28;20197;-76
2022/02/14 00:09:16;;;;;;;66.83;17.10;;;-2.70;62.70;;;;;;5072709;28;20246;-75
2022/02/14 00:12:04;;;;;;;54.70;15.73;;;-2.70;63.00;;;;;;5074227;28;20203;-75
2022/02/14 00:14:52;;;;;;;63.17;15.53;;;-2.70;63.80;;;;;;5073864;28;20208;-76
2022/02/14 00:17:40;;;;;;;58.00;16.37;;;-2.70;63.70;;;;;;5074264;28;20196;-75
2022/02/14 00:20:29;;;;;;;49.27;13.17;;;-2.80;63.90;;;;;;5073793;28;20291;-76
2022/02/14 00:23:17;;;;;;;52.73;15.00;;;-2.80;64.30;;;;;;5073707;28;20212;-76
2022/02/14 00:26:06;;;;;;;54.13;14.47;;;-2.90;65.20;;;;;;5072756;28;20207;-75
2022/02/14 00:28:53;;;;;;;40.10;13.23;;;-2.90;66.10;;;;;;5073292;28;20655;-75
2022/02/14 00:31:41;;;;;;;42.90;11.90;;;-2.90;67.10;;;;;;5074368;28;20193;-76
2022/02/14 00:34:29;;;;;;;42.80;12.73;;;-2.90;68.00;;;;;;5072554;28;20549;-76
2022/02/14 00:37:16;;;;;;;40.37;12.03;;;-3.00;67.90;;;;;;5073039;28;20216;-76
2022/02/14 00:40:05;;;;;;;39.83;11.60;;;-3.00;68.50;;;;;;5072865;28;20208;-75
2022/02/14 00:42:53;;;;;;;33.77;11.33;;;-3.00;67.30;;;;;;5074117;28;20570;-75
2022/02/14 00:45:41;;;;;;;39.07;12.10;;;-3.00;67.20;;;;;;5073300;28;20242;-75
2022/02/14 00:48:29;;;;;;;34.37;10.93;;;-3.00;67.00;;;;;;5072979;28;20241;-76
2022/02/14 00:51:16;;;;;;;35.30;11.20;;;-3.00;67.30;;;;;;5073957;28;20201;-76
2022/02/14 00:54:04;;;;;;;29.40;9.87;;;-3.10;67.80;;;;;;5073135;28;20566;-76
2022/02/14 00:56:51;;;;;;;27.67;8.57;;;-3.00;68.90;;;;;;5072851;28;20192;-75
2022/02/14 00:59:41;;;;;;;33.23;10.37;;;-3.00;67.70;;;;;;5073332;28;20205;-75
2022/02/14 01:02:28;;;;;;;26.57;9.63;;;-3.00;67.50;;;;;;5072495;28;20342;-76
2022/02/14 01:05:16;;;;;;;26.53;8.73;;;-2.90;67.80;;;;;;5073199;28;20197;-75
2022/02/14 01:08:04;;;;;;;25.60;8.80;;;-2.90;66.60;;;;;;5072894;28;20209;-75
2022/02/14 01:10:52;;;;;;;25.03;8.67;;;-2.90;66.80;;;;;;5072991;28;20227;-76
2022/02/14 01:13:40;;;;;;;28.93;8.43;;;-2.90;66.80;;;;;;5073005;28;20691;-76
2022/02/14 01:16:29;;;;;;;29.97;9.20;;;-2.90;66.50;;;;;;5073092;28;20250;-75
2022/02/14 01:19:16;;;;;;;43.10;12.70;;;-2.90;66.60;;;;;;5073032;28;20196;-75
2022/02/14 01:22:04;;;;;;;36.43;11.43;;;-3.00;67.90;;;;;;5072845;28;20257;-76
2022/02/14 01:24:52;;;;;;;32.07;10.60;;;-3.00;67.90;;;;;;5071803;28;20204;-76
2022/02/14 01:27:40;;;;;;;27.17;9.17;;;-3.00;69.10;;;;;;5072006;28;20223;-76
2022/02/14 01:30:27;;;;;;;25.20;8.97;;;-3.10;69.70;;;;;;5072492;28;20686;-75
2022/02/14 01:33:16;;;;;;;40.37;12.67;;;-3.10;71.00;;;;;;5072643;28;20200;-76
2022/02/14 01:36:04;;;;;;;36.37;10.07;;;-3.10;71.20;;;;;;5071739;28;20688;-76
2022/02/14 01:38:52;;;;;;;32.23;10.10;;;-3.00;71.40;;;;;;5072180;28;20207;-76
2022/02/14 01:41:40;;;;;;;29.93;10.53;;;-3.10;71.70;;;;;;5071571;28;20204;-75
2022/02/14 01:44:35;;;;;;;33.60;10.27;;;-3.10;71.60;;;;;;5071641;28;20680;-75
2022/02/14 01:47:24;;;;;;;31.97;10.13;;;-3.10;71.60;;;;;;5071108;28;20224;-75
2022/02/14 01:50:15;;;;;;;28.73;9.83;;;-3.10;72.10;;;;;;5073133;28;20196;-76
2022/02/14 01:53:03;;;;;;;24.80;8.80;;;-3.10;62.90;;;;;;5071476;28;20228;-75
2022/02/14 01:55:50;;;;;;;25.57;8.20;;;-3.20;1.00;;;;;;5072625;28;20196;-76
2022/02/14 01:58:38;;;;;;;27.50;9.73;;;-3.20;1.00;;;;;;5072885;28;20219;-75
2022/02/14 02:01:26;;;;;;;27.07;8.63;;;-3.10;1.00;;;;;;5071660;28;20200;-76
2022/02/14 02:04:14;;;;;;;28.20;9.57;;;-3.20;1.00;;;;;;5072129;28;20201;-75
2022/02/14 02:07:03;;;;;;;22.87;8.60;;;-3.20;1.00;;;;;;5073156;28;20196;-75
2022/02/14 02:09:51;;;;;;;27.93;9.93;;;-3.20;1.00;;;;;;5072112;28;20350;-76
2022/02/14 02:12:39;;;;;;;33.90;10.90;;;-3.20;1.00;;;;;;5072009;28;20196;-76
2022/02/14 02:15:26;;;;;;;34.77;11.10;;;-3.30;1.00;;;;;;5071890;28;20208;-75
2022/02/14 02:18:14;;;;;;;38.13;12.00;;;-3.30;1.00;;;;;;5072000;28;20192;-76
2022/02/14 02:21:01;;;;;;;34.13;11.10;;;-3.30;1.00;;;;;;5071664;28;20204;-75
2022/02/14 02:23:50;;;;;;;26.37;8.80;;;-3.40;1.00;;;;;;5072681;28;20200;-76
2022/02/14 02:26:39;;;;;;;24.33;8.87;;;-3.30;1.00;;;;;;5071076;28;20200;-75
2022/02/14 02:29:26;;;;;;;25.50;8.00;;;-3.30;1.00;;;;;;5071977;28;20567;-75
2022/02/14 02:32:14;;;;;;;25.03;8.00;;;-3.30;1.00;;;;;;5072201;28;20204;-76
2022/02/14 02:35:02;;;;;;;22.73;8.37;;;-3.30;1.00;;;;;;5073021;28;20207;-75
2022/02/14 02:37:50;;;;;;;24.33;8.70;;;-3.30;1.00;;;;;;5071943;28;20204;-75
2022/02/14 02:40:37;;;;;;;22.03;8.50;;;-3.30;1.00;;;;;;5071766;28;20208;-75
2022/02/14 02:43:28;;;;;;;23.73;8.20;;;-3.30;1.00;;;;;;5071966;28;20192;-75
2022/02/14 02:46:15;;;;;;;21.40;7.93;;;-3.30;1.00;;;;;;5070320;28;20269;-75
2022/02/14 02:49:11;;;;;;;21.93;7.90;;;-3.30;1.00;;;;;;5071849;28;20587;-75
2022/02/14 02:51:58;;;;;;;25.77;7.70;;;-3.30;1.00;;;;;;5071845;28;20201;-75
2022/02/14 02:54:46;;;;;;;24.23;8.20;;;-3.30;1.00;;;;;;5075957;28;20239;-75
2022/02/14 02:57:34;;;;;;;26.80;9.07;;;-3.30;1.00;;;;;;5075844;28;20197;-75
2022/02/14 03:00:23;;;;;;;46.97;14.03;;;-3.30;1.00;;;;;;5074782;28;20244;-76
2022/02/14 03:03:10;;;;;;;28.50;10.50;;;-3.40;1.00;;;;;;5074879;28;20193;-75
2022/02/14 03:05:58;;;;;;;34.73;10.93;;;-3.40;1.00;;;;;;5075746;28;20207;-76
2022/02/14 03:08:45;;;;;;;26.60;9.93;;;-3.40;1.00;;;;;;5075258;28;20213;-75
2022/02/14 03:11:33;;;;;;;25.53;8.30;;;-3.40;1.00;;;;;;5074746;28;20215;-76
2022/02/14 03:14:21;;;;;;;20.30;8.43;;;-3.40;1.00;;;;;;5075491;28;20692;-76
2022/02/14 03:17:14;;;;;;;20.50;8.00;;;-3.50;1.00;;;;;;5075401;28;20197;-76
2022/02/14 03:20:01;;;;;;;24.83;7.87;;;-3.50;1.00;;;;;;5075155;28;20197;-76
2022/02/14 03:22:49;;;;;;;21.77;8.07;;;-3.50;1.00;;;;;;5074641;28;20202;-76
2022/02/14 03:25:37;;;;;;;19.13;7.57;;;-3.50;1.00;;;;;;5075121;28;20278;-76
2022/02/14 03:28:25;;;;;;;18.77;7.60;;;-3.50;1.00;;;;;;5074831;28;20216;-75
2022/02/14 03:31:12;;;;;;;24.63;8.17;;;-3.40;1.00;;;;;;5075327;28;20686;-76
2022/02/14 03:34:01;;;;;;;21.10;7.83;;;-3.40;1.00;;;;;;5074898;28;20570;-76
2022/02/14 03:36:49;;;;;;;19.23;8.13;;;-3.40;1.00;;;;;;5074227;28;20207;-76
2022/02/14 03:39:37;;;;;;;18.90;7.90;;;-3.40;1.00;;;;;;5074820;28;20196;-76
2022/02/14 03:42:24;;;;;;;20.53;7.37;;;-3.40;1.00;;;;;;5074552;28;20229;-76
2022/02/14 03:45:12;;;;;;;26.47;8.60;;;-3.40;1.00;;;;;;5074669;28;20204;-76
2022/02/14 03:48:00;;;;;;;19.40;8.10;;;-3.50;1.00;;;;;;5074714;28;20228;-75
2022/02/14 03:50:49;;;;;;;22.07;8.70;;;-3.50;1.00;;;;;;5074954;28;20204;-76
2022/02/14 03:53:36;;;;;;;20.93;8.07;;;-3.50;1.00;;;;;;5074526;28;20223;-76
2022/02/14 03:56:24;;;;;;;20.77;8.17;;;-3.50;99.90;;;;;;5074507;28;20200;-75
2022/02/14 03:59:11;;;;;;;23.67;7.87;;;-3.50;1.00;;;;;;5074421;28;20239;-76
2022/02/14 04:02:04;;;;;;;58.40;15.00;;;-3.50;1.00;;;;;;5074202;28;20577;-76
2022/02/14 04:04:54;;;;;;;24.30;8.70;;;-3.50;1.00;;;;;;5072368;28;20201;-75
2022/02/14 04:07:47;;;;;;;34.47;11.77;;;-3.50;1.00;;;;;;5073794;28;20230;-76
2022/02/14 04:10:36;;;;;;;27.00;10.03;;;-3.60;1.00;;;;;;5073018;28;20308;-76
2022/02/14 04:13:26;;;;;;;26.40;9.73;;;-3.60;1.00;;;;;;5074242;28;20567;-76
2022/02/14 04:16:17;;;;;;;36.60;10.60;;;-3.60;1.00;;;;;;5074006;28;20204;-76
2022/02/14 04:19:07;;;;;;;31.83;10.87;;;-3.60;1.00;;;;;;5074105;28;20207;-76
2022/02/14 04:21:59;;;;;;;30.93;10.43;;;-3.60;1.00;;;;;;5073562;28;20336;-76
2022/02/14 04:24:52;;;;;;;24.87;8.70;;;-3.60;1.00;;;;;;5073761;28;20590;-76
2022/02/14 04:27:42;;;;;;;29.47;9.87;;;-3.60;1.00;;;;;;5073202;28;20228;-76
2022/02/14 04:30:31;;;;;;;24.00;9.67;;;-3.60;1.00;;;;;;5073837;28;20208;-76
2022/02/14 04:33:18;;;;;;;24.40;9.07;;;-3.60;1.00;;;;;;5073782;28;20202;-76
2022/02/14 04:36:06;;;;;;;23.87;8.40;;;-3.60;1.00;;;;;;5073900;28;20593;-76
2022/02/14 04:38:54;;;;;;;26.53;8.97;;;-3.60;1.00;;;;;;5073670;28;20220;-76
2022/02/14 04:41:46;;;;;;;18.57;7.23;;;-3.60;1.00;;;;;;5073023;28;20663;-75
2022/02/14 04:44:38;;;;;;;18.57;7.43;;;-3.60;1.00;;;;;;5072993;28;20200;-76
2022/02/14 04:47:31;;;;;;;20.57;7.80;;;-3.60;1.00;;;;;;5073609;28;20239;-76
2022/02/14 04:50:20;;;;;;;13.97;6.23;;;-3.60;1.00;;;;;;5073347;28;20193;-76
2022/02/14 04:53:10;;;;;;;18.03;6.93;;;-3.70;1.00;;;;;;5073911;28;20200;-76
2022/02/14 04:56:01;;;;;;;19.63;7.37;;;-3.60;1.00;;;;;;5073404;28;20204;-76
2022/02/14 04:58:52;;;;;;;37.10;10.03;;;-3.70;1.00;;;;;;5072871;28;20208;-76
2022/02/14 05:01:43;;;;;;;22.40;8.00;;;-3.70;1.00;;;;;;5073174;28;20234;-76
2022/02/14 05:04:33;;;;;;;24.90;7.90;;;-3.70;1.00;;;;;;5072751;28;20232;-75
2022/02/14 05:07:21;;;;;;;21.03;8.40;;;-3.60;1.00;;;;;;5072429;28;20242;-76
2022/02/14 05:10:10;;;;;;;18.20;7.37;;;-3.70;1.00;;;;;;5072568;28;20291;-76
2022/02/14 05:13:03;;;;;;;20.43;7.53;;;-3.70;1.00;;;;;;5071971;28;20208;-76
2022/02/14 05:15:59;;;;;;;16.60;7.07;;;-3.70;1.00;;;;;;5072390;28;20201;-76
2022/02/14 05:18:46;;;;;;;21.47;7.37;;;-3.70;1.00;;;;;;5072798;28;20197;-76
2022/02/14 05:21:34;;;;;;;16.27;7.80;;;-3.70;1.00;;;;;;5073024;28;20245;-76
2022/02/14 05:24:21;;;;;;;267.17;38.67;;;-3.70;1.00;;;;;;5072253;28;20223;-76
2022/02/14 05:27:09;;;;;;;139.03;24.90;;;-3.70;1.00;;;;;;5071624;28;20204;-76
2022/02/14 05:29:57;;;;;;;385.97;54.10;;;-3.70;1.00;;;;;;5071847;28;20690;-76
2022/02/14 05:32:45;;;;;;;232.20;41.77;;;-3.70;1.00;;;;;;5072440;28;20211;-76
2022/02/14 05:35:33;;;;;;;66.43;15.80;;;-3.80;1.00;;;;;;5071671;28;20200;-76
2022/02/14 05:38:24;;;;;;;119.03;26.90;;;-3.80;1.00;;;;;;5073373;28;20199;-76
2022/02/14 05:41:12;;;;;;;171.77;38.17;;;-3.80;1.00;;;;;;5073221;28;20197;-76
2022/02/14 05:44:01;;;;;;;463.17;105.30;;;-3.80;1.00;;;;;;5072274;28;20689;-76
2022/02/14 05:47:10;;;;;;;586.83;149.80;;;-3.80;1.00;;;;;;4712009;28;22061;-75
2022/02/14 05:49:59;;;;;;;509.03;129.60;;;-3.80;1.00;;;;;;5071745;28;20345;-76
2022/02/14 05:52:47;;;;;;;104.27;31.63;;;-3.80;1.00;;;;;;5071812;28;20197;-76
2022/02/14 05:55:34;;;;;;;70.67;20.87;;;-3.80;1.00;;;;;;5072881;28;20216;-75
2022/02/14 05:58:22;;;;;;;217.83;60.33;;;-3.70;1.00;;;;;;5071714;28;20224;-75
2022/02/14 06:01:10;;;;;;;115.17;30.97;;;-3.70;1.00;;;;;;5071753;28;20201;-76
2022/02/14 06:03:57;;;;;;;206.60;59.47;;;-3.70;1.00;;;;;;5072333;28;20200;-75
2022/02/14 06:06:46;;;;;;;499.30;144.27;;;-3.80;1.00;;;;;;5072232;28;20203;-75
2022/02/14 06:09:34;;;;;;;159.67;49.67;;;-3.70;1.00;;;;;;5072059;28;20221;-76
2022/02/14 06:12:21;;;;;;;121.77;35.97;;;-3.70;1.00;;;;;;5071306;28;20675;-75
2022/02/14 06:15:10;;;;;;;122.67;40.57;;;-3.60;1.00;;;;;;5073094;28;20196;-75
2022/02/14 06:17:57;;;;;;;83.03;29.40;;;-3.60;1.00;;;;;;5072290;28;20200;-75
2022/02/14 06:20:45;;;;;;;37.73;15.37;;;-3.60;1.00;;;;;;5072375;28;20201;-76
2022/02/14 06:23:34;;;;;;;51.27;21.23;;;-3.50;1.00;;;;;;5072758;28;20199;-76
2022/02/14 06:26:22;;;;;;;63.07;22.13;;;-3.50;1.00;;;;;;5071894;28;20608;-76
2022/02/14 06:29:09;;;;;;;75.30;31.27;;;-3.40;1.00;;;;;;5076000;28;20212;-76
2022/02/14 06:31:58;;;;;;;133.10;44.40;;;-3.30;1.00;;;;;;5075761;28;20204;-75
2022/02/14 06:34:45;;;;;;;66.33;24.57;;;-3.30;1.00;;;;;;5076664;28;20201;-76
2022/02/14 06:37:34;;;;;;;119.77;40.37;;;-3.30;1.00;;;;;;5075423;28;20193;-75
2022/02/14 06:40:26;;;;;;;49.57;19.60;;;-3.20;1.00;;;;;;5077318;28;20192;-76
2022/02/14 06:43:13;;;;;;;70.40;26.63;;;-3.10;1.00;;;;;;5075962;28;20200;-75
2022/02/14 06:46:01;;;;;;;52.83;22.73;;;-3.00;1.00;;;;;;5077039;28;20200;-75
2022/02/14 06:48:48;;;;;;;26.57;11.97;;;-2.80;1.00;;;;;;5075483;28;20232;-76
2022/02/14 06:51:36;;;;;;;37.93;11.80;;;-2.70;1.00;;;;;;5075867;28;20773;-75
2022/02/14 06:54:24;;;;;;;38.93;13.97;;;-2.50;1.00;;;;;;5075853;28;20566;-75
2022/02/14 06:57:13;;;;;;;44.80;13.67;;;-2.30;1.00;;;;;;5075621;28;20589;-76
2022/02/14 07:00:00;;;;;;;47.50;14.27;;;-2.20;1.00;;;;;;5075674;28;20197;-75
2022/02/14 07:02:48;;;;;;;39.77;15.03;;;-2.00;1.00;;;;;;5076612;28;20636;-75
2022/02/14 07:05:36;;;;;;;57.50;19.73;;;-1.80;1.00;;;;;;5074172;28;20671;-75
2022/02/14 07:08:23;;;;;;;39.70;14.47;;;-1.70;1.00;;;;;;5075386;28;20242;-75
2022/02/14 07:11:12;;;;;;;23.37;9.77;;;-1.50;43.70;;;;;;5074904;28;20215;-75
2022/02/14 07:14:01;;;;;;;28.43;9.93;;;-1.40;3.00;;;;;;5074028;28;20207;-75
2022/02/14 07:16:50;;;;;;;44.37;17.07;;;-1.20;99.90;;;;;;5074691;28;20207;-75
2022/02/14 07:19:38;;;;;;;34.63;14.43;;;-1.00;99.90;;;;;;5075152;28;20192;-75
2022/02/14 07:22:25;;;;;;;39.00;15.30;;;-0.80;99.90;;;;;;5074258;28;20197;-74
2022/02/14 07:25:13;;;;;;;50.77;20.20;;;-0.70;1.00;;;;;;5075623;28;20200;-74
2022/02/14 07:28:01;;;;;;;60.47;21.67;;;-0.50;79.50;;;;;;5074435;28;20208;-75
2022/02/14 07:30:50;;;;;;;43.27;16.67;;;-0.30;94.70;;;;;;5074360;28;20223;-75
2022/02/14 07:33:37;;;;;;;46.60;17.40;;;-0.20;99.90;;;;;;5075422;28;20197;-75
2022/02/14 07:36:25;;;;;;;39.10;14.83;;;0.00;99.90;;;;;;5074801;28;20275;-74
2022/02/14 07:39:12;;;;;;;36.67;15.50;;;0.20;99.90;;;;;;5073404;28;20192;-75
2022/02/14 07:42:05;;;;;;;40.23;15.23;;;0.30;99.90;;;;;;5074841;28;20208;-75
2022/02/14 07:45:01;;;;;;;47.73;16.93;;;0.60;99.90;;;;;;5075475;28;20284;-75
2022/02/14 07:47:58;;;;;;;43.67;16.87;;;0.80;99.90;;;;;;5075075;28;20239;-75
2022/02/14 07:50:52;;;;;;;46.43;17.83;;;1.10;99.90;;;;;;5074980;28;20227;-75
2022/02/14 07:53:43;;;;;;;44.40;18.37;;;1.30;99.30;;;;;;5074616;28;20588;-75
2022/02/14 07:56:37;;;;;;;55.33;20.03;;;1.50;97.60;;;;;;5074583;28;20201;-75
2022/02/14 07:59:30;;;;;;;51.07;20.83;;;1.80;95.80;;;;;;5075394;28;20197;-75
2022/02/14 08:02:32;;;;;;;53.33;21.10;;;2.00;95.40;;;;;;5073121;28;20197;-75
2022/02/14 08:05:28;;;;;;;54.63;21.17;;;2.20;92.80;;;;;;5074931;28;20196;-75
2022/02/14 08:08:24;;;;;;;50.10;20.30;;;2.50;90.70;;;;;;5074798;28;20192;-75
2022/02/14 08:11:11;;;;;;;43.53;18.60;;;2.70;87.90;;;;;;5074236;28;20595;-75
2022/02/14 08:13:59;;;;;;;61.10;25.07;;;3.00;85.20;;;;;;5073171;28;20197;-75
2022/02/14 08:16:47;;;;;;;40.67;17.23;;;3.20;82.60;;;;;;5074201;28;20201;-74
2022/02/14 08:19:34;;;;;;;32.13;14.30;;;3.40;78.80;;;;;;5074783;28;20201;-75
2022/02/14 08:22:23;;;;;;;25.33;12.10;;;3.70;79.00;;;;;;5073553;28;20196;-75
2022/02/14 08:25:11;;;;;;;25.10;11.40;;;3.80;75.80;;;;;;5073601;28;20211;-74
2022/02/14 08:27:59;;;;;;;28.60;12.93;;;4.10;73.30;;;;;;5073323;28;20200;-75
2022/02/14 08:30:47;;;;;;;26.27;12.00;;;4.40;73.30;;;;;;5072519;28;20220;-75
2022/02/14 08:33:35;;;;;;;31.17;12.77;;;4.60;70.80;;;;;;5073453;28;20196;-75
2022/02/14 08:36:22;;;;;;;31.17;13.00;;;4.80;69.80;;;;;;5074028;28;20200;-74
2022/02/14 08:39:13;;;;;;;38.53;12.40;;;4.90;67.60;;;;;;5073496;28;20192;-75
2022/02/14 08:42:00;;;;;;;26.90;12.13;;;5.10;67.30;;;;;;5074235;28;20283;-75
2022/02/14 08:44:48;;;;;;;25.70;12.20;;;5.30;67.60;;;;;;5074393;28;20291;-74
2022/02/14 08:47:35;;;;;;;22.07;11.43;;;5.50;65.80;;;;;;5073768;28;20685;-75
2022/02/14 08:50:23;;;;;;;27.73;12.53;;;5.80;63.70;;;;;;5072787;28;20213;-75
2022/02/14 08:53:11;;;;;;;30.10;13.60;;;6.00;65.10;;;;;;5073596;28;20212;-75
2022/02/14 08:56:00;;;;;;;32.37;15.13;;;6.30;63.60;;;;;;5073559;28;20200;-76
2022/02/14 08:58:47;;;;;;;38.23;15.60;;;6.50;61.70;;;;;;5073886;28;20197;-75
2022/02/14 09:01:35;;;;;;;31.43;15.00;;;6.80;62.00;;;;;;5073400;28;20197;-75
2022/02/14 09:04:25;;;;;;;36.80;15.47;;;6.90;61.20;;;;;;5072557;28;20215;-76
2022/02/14 09:07:12;;;;;;;33.93;13.83;;;7.20;60.70;;;;;;5072437;28;20244;-75
2022/02/14 09:10:00;;;;;;;31.47;13.97;;;7.30;59.70;;;;;;5073857;28;20222;-76
2022/02/14 09:12:49;;;;;;;25.40;12.23;;;7.50;59.00;;;;;;5072433;28;20203;-76
2022/02/14 09:15:37;;;;;;;32.97;13.20;;;7.70;58.60;;;;;;5073062;28;20254;-75
2022/02/14 09:18:25;;;;;;;28.00;13.60;;;7.70;56.70;;;;;;5072275;28;20216;-75
2022/02/14 09:21:12;;;;;;;27.47;12.53;;;8.00;57.50;;;;;;5073072;28;20681;-75
2022/02/14 09:24:00;;;;;;;23.40;11.50;;;8.10;56.60;;;;;;5072013;28;20217;-75
2022/02/14 09:26:51;;;;;;;23.27;11.43;;;8.40;55.60;;;;;;5072261;28;20663;-75
2022/02/14 09:29:40;;;;;;;22.17;11.17;;;8.60;54.70;;;;;;5071454;28;20215;-74
2022/02/14 09:32:28;;;;;;;27.67;12.80;;;8.80;53.70;;;;;;5072121;28;20204;-75
2022/02/14 09:35:26;;;;;;;24.80;12.00;;;8.90;53.80;;;;;;5073405;28;20203;-74
2022/02/14 09:38:14;;;;;;;24.20;11.23;;;8.90;53.20;;;;;;5071487;28;20203;-75
2022/02/14 09:41:02;;;;;;;23.40;11.80;;;9.10;54.00;;;;;;5071387;28;20272;-75
2022/02/14 09:43:53;;;;;;;25.70;12.37;;;9.30;52.30;;;;;;5072327;28;20270;-75
2022/02/14 09:46:43;;;;;;;30.50;14.10;;;9.50;52.30;;;;;;5071949;28;20278;-75
2022/02/14 09:49:31;;;;;;;31.10;13.13;;;9.70;52.20;;;;;;5071571;28;20232;-75
2022/02/14 09:52:18;;;;;;;31.13;13.77;;;9.80;50.20;;;;;;5072229;28;20195;-75
2022/02/14 09:55:07;;;;;;;27.23;12.43;;;10.20;51.70;;;;;;5071898;28;20571;-75
2022/02/14 09:57:55;;;;;;;31.10;13.90;;;10.10;48.60;;;;;;5071820;28;20679;-75
2022/02/14 10:00:43;;;;;;;28.97;13.07;;;9.90;49.40;;;;;;5071981;28;20197;-75
2022/02/14 10:03:33;;;;;;;32.00;13.50;;;10.30;49.90;;;;;;5071649;28;20575;-75
2022/02/14 10:06:28;;;;;;;31.33;14.13;;;10.40;49.10;;;;;;5072725;28;20203;-75
2022/02/14 10:09:18;;;;;;;30.90;14.43;;;10.20;50.00;;;;;;5072927;28;20207;-75
2022/02/14 10:12:09;;;;;;;31.57;14.80;;;10.30;49.70;;;;;;5071188;28;20208;-75
2022/02/14 10:15:02;;;;;;;19.47;9.80;;;10.60;49.40;;;;;;5072209;28;20193;-74
2022/02/14 10:17:51;;;;;;;16.63;8.00;;;10.70;47.00;;;;;;5070540;28;20286;-75
2022/02/14 10:20:40;;;;;;;14.53;7.07;;;10.70;46.20;;;;;;5072063;28;20196;-74
2022/02/14 10:23:28;;;;;;;15.60;7.60;;;10.80;47.50;;;;;;5072058;28;20204;-74
2022/02/14 10:26:19;;;;;;;13.70;7.00;;;10.50;46.90;;;;;;5071829;28;20195;-75
2022/02/14 10:29:14;;;;;;;15.23;7.80;;;10.50;45.90;;;;;;5072523;28;20207;-74
2022/02/14 10:32:06;;;;;;;15.93;7.63;;;10.40;46.80;;;;;;5070754;28;20199;-74
2022/02/14 10:34:55;;;;;;;19.83;7.83;;;10.30;46.70;;;;;;5072518;28;20200;-74
2022/02/14 10:37:45;;;;;;;16.13;8.20;;;10.40;48.20;;;;;;5070068;28;20343;-75
2022/02/14 10:40:38;;;;;;;14.30;6.93;;;10.50;46.80;;;;;;5071819;28;20662;-74
2022/02/14 10:43:27;;;;;;;15.10;7.03;;;10.40;45.90;;;;;;5071552;28;20202;-74
2022/02/14 10:46:24;;;;;;;18.57;7.27;;;10.40;44.90;;;;;;5071794;28;20201;-75
2022/02/14 10:49:12;;;;;;;15.33;7.63;;;10.20;45.10;;;;;;5071599;28;20648;-74
2022/02/14 10:52:02;;;;;;;14.90;8.13;;;10.60;47.90;;;;;;5069979;28;20736;-75
2022/02/14 10:54:51;;;;;;;18.00;8.30;;;10.50;47.60;;;;;;5071799;28;20694;-74
2022/02/14 10:57:40;;;;;;;19.07;8.70;;;10.60;44.80;;;;;;5071746;28;20205;-75
2022/02/14 11:00:29;;;;;;;15.40;8.43;;;10.60;45.50;;;;;;5071089;28;20609;-75
2022/02/14 11:03:17;;;;;;;16.10;7.63;;;10.40;45.20;;;;;;5072508;28;20205;-74
2022/02/14 11:06:04;;;;;;;14.13;6.87;;;10.60;45.20;;;;;;5071665;28;20235;-74
2022/02/14 11:08:52;;;;;;;13.90;6.63;;;10.90;44.70;;;;;;5071135;28;20205;-74
2022/02/14 11:11:41;;;;;;;13.53;7.33;;;10.70;43.50;;;;;;5070824;28;20701;-75
2022/02/14 11:14:29;;;;;;;15.60;7.50;;;10.40;44.30;;;;;;5071735;28;20287;-75
2022/02/14 11:17:17;;;;;;;14.73;7.17;;;10.20;45.00;;;;;;5075573;28;20602;-74
2022/02/14 11:20:05;;;;;;;13.57;6.83;;;10.30;44.20;;;;;;5073531;28;20731;-74
2022/02/14 11:22:55;;;;;;;16.40;8.23;;;10.50;44.20;;;;;;5075198;28;20197;-75
2022/02/14 11:25:45;;;;;;;18.73;8.37;;;10.80;43.70;;;;;;5075349;28;20212;-74
2022/02/14 11:28:37;;;;;;;16.57;8.27;;;11.00;44.00;;;;;;5075023;28;20664;-75
2022/02/14 11:31:28;;;;;;;16.10;7.97;;;11.10;43.80;;;;;;5074225;28;20594;-74
2022/02/14 11:34:16;;;;;;;9.70;5.60;;;11.40;44.70;;;;;;5074628;28;20278;-75
2022/02/14 11:37:04;;;;;;;10.63;4.97;;;11.80;41.80;;;;;;5074930;28;20281;-74
2022/02/14 11:39:51;;;;;;;9.57;5.00;;;11.30;41.10;;;;;;5074490;28;20211;-75
2022/02/14 11:43:15;;;;;;;15.13;5.53;;;11.20;41.20;;;;;;5074368;28;20199;-74
2022/02/14 11:46:18;;;;;;;7.77;4.10;;;11.10;41.60;;;;;;5074980;28;20195;-75
2022/02/14 11:49:17;;;;;;;9.23;4.73;;;11.50;40.60;;;;;;5073927;28;20235;-75
2022/02/14 11:52:05;;;;;;;8.37;4.23;;;11.70;40.10;;;;;;5074546;28;20223;-75
2022/02/14 11:55:03;;;;;;;6.43;4.10;;;11.90;40.70;;;;;;5074770;28;20714;-74
2022/02/14 11:57:51;;;;;;;9.27;4.77;;;12.10;40.10;;;;;;5073877;28;20193;-74
2022/02/14 12:00:38;;;;;;;8.63;3.97;;;12.20;39.70;;;;;;5073862;28;20292;-75
2022/02/14 12:03:28;;;;;;;10.50;4.77;;;12.40;37.90;;;;;;5074548;28;20202;-74
2022/02/14 12:06:16;;;;;;;8.43;4.20;;;12.20;39.10;;;;;;5074132;28;20198;-74
2022/02/14 12:09:06;;;;;;;6.87;4.03;;;12.00;38.50;;;;;;5073703;28;20299;-75
2022/02/14 12:11:54;;;;;;;7.37;4.10;;;11.90;39.60;;;;;;5074033;28;20218;-74
2022/02/14 12:14:42;;;;;;;8.33;4.60;;;12.10;38.50;;;;;;5074200;28;20202;-74
2022/02/14 12:20:47;;;;;;;8.77;3.90;;;12.90;37.80;;;;;;5074220;28;20269;-74
2022/02/14 12:23:36;;;;;;;8.30;4.60;;;13.00;37.10;;;;;;5073365;28;20253;-74
2022/02/14 12:26:26;;;;;;;8.77;4.00;;;13.00;37.40;;;;;;5072993;28;20201;-74
2022/02/14 12:32:19;;;;;;;12.33;4.80;;;12.70;38.10;;;;;;5074372;28;20193;-74
2022/02/14 12:35:08;;;;;;;8.80;4.60;;;13.20;38.10;;;;;;5073969;28;20199;-75
2022/02/14 12:37:57;;;;;;;9.80;4.80;;;13.70;37.30;;;;;;5074096;28;20685;-75
2022/02/14 12:40:48;;;;;;;10.53;4.70;;;14.80;36.70;;;;;;5073745;28;20199;-75
2022/02/14 12:43:37;;;;;;;8.73;5.00;;;16.00;34.60;;;;;;5074325;28;20204;-75
2022/02/14 12:46:25;;;;;;;8.77;4.90;;;17.10;33.10;;;;;;5074050;28;20189;-75
2022/02/14 12:49:13;;;;;;;9.73;4.90;;;17.00;32.70;;;;;;5072932;28;20375;-75
2022/02/14 12:52:11;;;;;;;8.70;4.57;;;18.00;31.70;;;;;;5073711;28;20684;-75
2022/02/14 12:55:01;;;;;;;6.40;4.57;;;18.40;29.60;;;;;;5073471;28;20204;-75
2022/02/14 12:57:50;;;;;;;8.17;4.80;;;17.30;30.60;;;;;;5073449;28;20195;-74
2022/02/14 13:00:41;;;;;;;8.33;4.97;;;17.00;30.40;;;;;;5073839;28;20199;-75
2022/02/14 13:03:29;;;;;;;10.57;5.60;;;17.40;30.80;;;;;;5072671;28;20333;-75
2022/02/14 13:06:16;;;;;;;10.07;5.23;;;17.80;30.50;;;;;;5073059;28;20192;-75
2022/02/14 13:09:04;;;;;;;8.70;4.93;;;17.40;30.40;;;;;;5073739;28;20672;-75
2022/02/14 13:11:54;;;;;;;6.90;4.80;;;18.00;30.70;;;;;;5073031;28;20218;-75
2022/02/14 13:14:44;;;;;;;9.47;5.43;;;18.70;29.50;;;;;;5073207;28;20567;-75
2022/02/14 13:17:32;;;;;;;7.57;4.83;;;18.80;29.50;;;;;;5072362;28;20696;-75
2022/02/14 13:20:20;;;;;;;11.47;5.27;;;19.50;29.30;;;;;;5072490;28;20552;-74
2022/02/14 13:23:07;;;;;;;9.47;5.20;;;19.70;29.00;;;;;;5073409;28;20200;-75
2022/02/14 13:25:55;;;;;;;11.13;5.47;;;19.50;28.90;;;;;;5073018;28;20208;-75
2022/02/14 13:28:44;;;;;;;9.17;5.33;;;19.50;29.70;;;;;;5073015;28;20280;-75
2022/02/14 13:31:32;;;;;;;10.03;6.00;;;20.20;29.00;;;;;;5073663;28;20212;-75
2022/02/14 13:34:20;;;;;;;8.20;5.10;;;21.00;27.70;;;;;;5071657;28;20201;-74
2022/02/14 13:37:11;;;;;;;6.87;4.67;;;20.80;27.50;;;;;;5072087;28;20196;-75
2022/02/14 13:39:59;;;;;;;8.17;5.10;;;20.40;27.10;;;;;;5073188;28;20201;-74
2022/02/14 13:42:47;;;;;;;11.47;5.43;;;20.00;28.30;;;;;;5072723;28;20659;-75
2022/02/14 13:45:45;;;;;;;9.13;5.73;;;19.10;28.00;;;;;;5072062;28;20228;-75
2022/02/14 13:48:36;;;;;;;9.07;5.60;;;18.00;28.90;;;;;;5071773;28;20248;-74
2022/02/14 13:51:25;;;;;;;9.47;4.87;;;18.30;29.30;;;;;;5072585;28;20219;-74
2022/02/14 13:54:14;;;;;;;9.83;4.60;;;18.40;28.40;;;;;;5072252;28;20549;-75
2022/02/14 13:57:01;;;;;;;8.63;4.40;;;18.90;28.60;;;;;;5072487;28;20204;-75
2022/02/14 13:59:49;;;;;;;6.50;4.30;;;19.20;28.10;;;;;;5072961;28;20197;-75
2022/02/14 14:02:38;;;;;;;6.57;3.60;;;19.10;27.70;;;;;;5071770;28;20197;-74
2022/02/14 14:05:25;;;;;;;7.13;3.97;;;19.30;27.70;;;;;;5071791;28;20664;-75
2022/02/14 14:08:14;;;;;;;7.53;4.27;;;19.20;27.30;;;;;;5070404;28;20203;-75
2022/02/14 14:11:05;;;;;;;6.10;3.97;;;18.40;27.60;;;;;;5072057;28;20277;-75
2022/02/14 14:13:53;;;;;;;8.13;4.37;;;18.10;28.00;;;;;;5072118;28;20661;-75
2022/02/14 14:16:41;;;;;;;8.40;3.73;;;18.10;28.20;;;;;;5072119;28;20675;-75
2022/02/14 14:19:30;;;;;;;10.03;3.97;;;18.50;28.40;;;;;;5072588;28;20272;-74
2022/02/14 14:22:18;;;;;;;7.33;4.10;;;18.00;27.40;;;;;;5071931;28;20202;-74
2022/02/14 14:25:07;;;;;;;7.03;4.23;;;18.00;27.70;;;;;;5071817;28;20644;-75
2022/02/14 14:27:55;;;;;;;6.80;4.07;;;18.30;27.60;;;;;;5066574;28;20231;-74
2022/02/14 14:30:43;;;;;;;13.43;4.43;;;18.00;27.30;;;;;;5072504;28;20201;-74
2022/02/14 14:33:30;;;;;;;5.43;3.23;;;17.40;27.80;;;;;;5072057;28;20279;-74
2022/02/14 14:36:19;;;;;;;9.07;3.97;;;17.30;28.00;;;;;;5072442;28;20616;-75